sensor_id;sensor_type;location;lat;lon;timestamp;P1;durP1;ratioP1;P2;durP2;ratioP2
75062;SDS011;63981;51.052;13.754;2023-05-07T00:01:46;730.47;;;666.38;;
75062;SDS011;63981;51.052;13.754;2023-05-07T00:04:12;732.22;;;668.63;;
75062;SDS011;63981;51.052;13.754;2023-05-07T00:06:39;733.60;;;669.42;;
75062;SDS011;63981;51.052;13.754;2023-05-07T00:09:05;731.38;;;667.75;;
75062;SDS011;63981;51.052;13.754;2023-05-07T00:11:32;731.72;;;668.25;;
75062;SDS011;63981;51.052;13.754;2023-05-07T00:13:58;735.00;;;670.80;;
75062;SDS011;63981;51.052;13.754;2023-05-07T00:16:24;734.15;;;669.78;;
75062;SDS011;63981;51.052;13.754;2023-05-07T00:18:50;733.13;;;668.97;;
75062;SDS011;63981;51.052;13.754;2023-05-07T00:21:16;732.97;;;669.47;;
75062;SDS011;63981;51.052;13.754;2023-05-07T00:23:41;736.15;;;671.75;;
75062;SDS011;63981;51.052;13.754;2023-05-07T00:26:07;734.95;;;670.47;;
75062;SDS011;63981;51.052;13.754;2023-05-07T00:28:33;737.45;;;673.15;;
75062;SDS011;63981;51.052;13.754;2023-05-07T00:30:59;745.00;;;680.38;;
75062;SDS011;63981;51.052;13.754;2023-05-07T00:33:25;734.40;;;670.15;;
75062;SDS011;63981;51.052;13.754;2023-05-07T00:35:54;734.95;;;670.50;;
75062;SDS011;63981;51.052;13.754;2023-05-07T00:38:20;735.28;;;670.95;;
75062;SDS011;63981;51.052;13.754;2023-05-07T00:40:46;737.92;;;673.42;;
75062;SDS011;63981;51.052;13.754;2023-05-07T00:43:11;737.30;;;672.92;;
75062;SDS011;63981;51.052;13.754;2023-05-07T00:45:38;734.72;;;670.30;;
75062;SDS011;63981;51.052;13.754;2023-05-07T00:48:04;736.85;;;672.97;;
75062;SDS011;63981;51.052;13.754;2023-05-07T00:50:30;736.00;;;672.25;;
75062;SDS011;63981;51.052;13.754;2023-05-07T00:52:56;735.80;;;671.58;;
75062;SDS011;63981;51.052;13.754;2023-05-07T00:55:23;737.15;;;672.80;;
75062;SDS011;63981;51.052;13.754;2023-05-07T00:57:49;733.45;;;669.85;;
75062;SDS011;63981;51.052;13.754;2023-05-07T01:00:16;738.92;;;675.03;;
75062;SDS011;63981;51.052;13.754;2023-05-07T01:02:42;738.38;;;673.97;;
75062;SDS011;63981;51.052;13.754;2023-05-07T01:05:09;735.58;;;671.90;;
75062;SDS011;63981;51.052;13.754;2023-05-07T01:07:40;735.28;;;672.08;;
75062;SDS011;63981;51.052;13.754;2023-05-07T01:10:07;739.53;;;675.03;;
75062;SDS011;63981;51.052;13.754;2023-05-07T01:12:34;736.67;;;673.22;;
75062;SDS011;63981;51.052;13.754;2023-05-07T01:15:02;741.97;;;677.95;;
75062;SDS011;63981;51.052;13.754;2023-05-07T01:17:33;740.35;;;676.95;;
75062;SDS011;63981;51.052;13.754;2023-05-07T01:20:01;737.55;;;673.72;;
75062;SDS011;63981;51.052;13.754;2023-05-07T01:22:31;737.90;;;674.70;;
75062;SDS011;63981;51.052;13.754;2023-05-07T01:24:58;424.13;;;387.20;;
75062;SDS011;63981;51.052;13.754;2023-05-07T01:27:28;14.45;;;9.30;;
75062;SDS011;63981;51.052;13.754;2023-05-07T01:29:54;13.60;;;9.35;;
75062;SDS011;63981;51.052;13.754;2023-05-07T01:32:28;16.27;;;10.77;;
75062;SDS011;63981;51.052;13.754;2023-05-07T01:35:01;13.20;;;9.27;;
75062;SDS011;63981;51.052;13.754;2023-05-07T01:37:31;15.52;;;10.63;;
75062;SDS011;63981;51.052;13.754;2023-05-07T01:39:57;12.32;;;8.48;;
75062;SDS011;63981;51.052;13.754;2023-05-07T01:42:23;13.57;;;9.10;;
75062;SDS011;63981;51.052;13.754;2023-05-07T01:44:49;13.73;;;9.23;;
75062;SDS011;63981;51.052;13.754;2023-05-07T01:47:15;12.27;;;9.15;;
75062;SDS011;63981;51.052;13.754;2023-05-07T01:49:42;11.60;;;8.60;;
75062;SDS011;63981;51.052;13.754;2023-05-07T01:52:09;10.52;;;7.93;;
75062;SDS011;63981;51.052;13.754;2023-05-07T01:54:36;12.40;;;8.57;;
75062;SDS011;63981;51.052;13.754;2023-05-07T01:57:03;10.43;;;8.10;;
75062;SDS011;63981;51.052;13.754;2023-05-07T01:59:29;12.27;;;9.40;;
75062;SDS011;63981;51.052;13.754;2023-05-07T02:01:55;11.90;;;9.10;;
75062;SDS011;63981;51.052;13.754;2023-05-07T02:04:23;12.48;;;8.80;;
75062;SDS011;63981;51.052;13.754;2023-05-07T02:06:50;13.32;;;9.15;;
75062;SDS011;63981;51.052;13.754;2023-05-07T02:09:16;12.55;;;9.10;;
75062;SDS011;63981;51.052;13.754;2023-05-07T02:14:10;11.10;;;8.02;;
75062;SDS011;63981;51.052;13.754;2023-05-07T02:16:36;11.90;;;9.10;;
75062;SDS011;63981;51.052;13.754;2023-05-07T02:19:02;11.30;;;8.27;;
75062;SDS011;63981;51.052;13.754;2023-05-07T02:21:27;13.68;;;9.00;;
75062;SDS011;63981;51.052;13.754;2023-05-07T02:23:53;12.30;;;9.25;;
75062;SDS011;63981;51.052;13.754;2023-05-07T02:26:19;10.00;;;7.60;;
75062;SDS011;63981;51.052;13.754;2023-05-07T02:28:47;10.30;;;7.60;;
75062;SDS011;63981;51.052;13.754;2023-05-07T02:31:13;11.77;;;8.98;;
75062;SDS011;63981;51.052;13.754;2023-05-07T02:33:39;11.18;;;8.55;;
75062;SDS011;63981;51.052;13.754;2023-05-07T02:36:08;12.15;;;9.10;;
75062;SDS011;63981;51.052;13.754;2023-05-07T02:38:38;11.70;;;9.20;;
75062;SDS011;63981;51.052;13.754;2023-05-07T02:41:04;10.82;;;7.28;;
75062;SDS011;63981;51.052;13.754;2023-05-07T02:43:30;12.30;;;8.82;;
75062;SDS011;63981;51.052;13.754;2023-05-07T02:46:00;10.23;;;7.70;;
75062;SDS011;63981;51.052;13.754;2023-05-07T02:48:29;15.05;;;10.27;;
75062;SDS011;63981;51.052;13.754;2023-05-07T02:50:55;12.50;;;8.85;;
75062;SDS011;63981;51.052;13.754;2023-05-07T02:53:21;14.13;;;9.18;;
75062;SDS011;63981;51.052;13.754;2023-05-07T02:55:47;11.75;;;8.82;;
75062;SDS011;63981;51.052;13.754;2023-05-07T02:58:13;12.40;;;8.73;;
75062;SDS011;63981;51.052;13.754;2023-05-07T03:00:40;14.77;;;8.50;;
75062;SDS011;63981;51.052;13.754;2023-05-07T03:03:32;13.27;;;9.13;;
75062;SDS011;63981;51.052;13.754;2023-05-07T03:05:58;11.15;;;7.30;;
75062;SDS011;63981;51.052;13.754;2023-05-07T03:08:24;10.70;;;7.03;;
75062;SDS011;63981;51.052;13.754;2023-05-07T03:10:50;9.93;;;6.53;;
75062;SDS011;63981;51.052;13.754;2023-05-07T03:13:16;9.02;;;6.07;;
75062;SDS011;63981;51.052;13.754;2023-05-07T03:15:42;8.25;;;6.03;;
75062;SDS011;63981;51.052;13.754;2023-05-07T03:18:08;8.52;;;5.95;;
75062;SDS011;63981;51.052;13.754;2023-05-07T03:20:34;8.40;;;6.05;;
75062;SDS011;63981;51.052;13.754;2023-05-07T03:23:00;9.02;;;6.50;;
75062;SDS011;63981;51.052;13.754;2023-05-07T03:25:26;9.10;;;6.47;;
75062;SDS011;63981;51.052;13.754;2023-05-07T03:27:51;9.18;;;6.05;;
75062;SDS011;63981;51.052;13.754;2023-05-07T03:30:21;8.00;;;6.22;;
75062;SDS011;63981;51.052;13.754;2023-05-07T03:32:47;9.95;;;6.70;;
75062;SDS011;63981;51.052;13.754;2023-05-07T03:35:13;8.38;;;6.05;;
75062;SDS011;63981;51.052;13.754;2023-05-07T03:37:39;10.73;;;7.47;;
75062;SDS011;63981;51.052;13.754;2023-05-07T03:40:07;11.20;;;7.55;;
75062;SDS011;63981;51.052;13.754;2023-05-07T03:42:42;8.73;;;6.30;;
75062;SDS011;63981;51.052;13.754;2023-05-07T03:45:08;10.45;;;7.30;;
75062;SDS011;63981;51.052;13.754;2023-05-07T03:47:35;11.20;;;7.03;;
75062;SDS011;63981;51.052;13.754;2023-05-07T03:50:02;12.27;;;7.97;;
75062;SDS011;63981;51.052;13.754;2023-05-07T03:52:28;10.60;;;7.32;;
75062;SDS011;63981;51.052;13.754;2023-05-07T03:54:57;12.57;;;8.15;;
75062;SDS011;63981;51.052;13.754;2023-05-07T03:57:23;12.52;;;8.73;;
75062;SDS011;63981;51.052;13.754;2023-05-07T03:59:48;14.10;;;8.63;;
75062;SDS011;63981;51.052;13.754;2023-05-07T04:02:14;12.63;;;8.40;;
75062;SDS011;63981;51.052;13.754;2023-05-07T04:04:41;13.85;;;8.98;;
75062;SDS011;63981;51.052;13.754;2023-05-07T04:07:08;12.50;;;8.52;;
75062;SDS011;63981;51.052;13.754;2023-05-07T04:09:39;12.07;;;7.40;;
75062;SDS011;63981;51.052;13.754;2023-05-07T04:12:05;14.05;;;8.57;;
75062;SDS011;63981;51.052;13.754;2023-05-07T04:14:34;14.07;;;8.18;;
75062;SDS011;63981;51.052;13.754;2023-05-07T04:17:00;14.00;;;8.40;;
75062;SDS011;63981;51.052;13.754;2023-05-07T04:19:27;13.30;;;8.43;;
75062;SDS011;63981;51.052;13.754;2023-05-07T04:21:54;14.75;;;7.95;;
75062;SDS011;63981;51.052;13.754;2023-05-07T04:24:21;10.93;;;7.70;;
75062;SDS011;63981;51.052;13.754;2023-05-07T04:26:47;11.50;;;7.97;;
75062;SDS011;63981;51.052;13.754;2023-05-07T04:29:13;11.75;;;7.90;;
75062;SDS011;63981;51.052;13.754;2023-05-07T04:31:38;13.55;;;7.88;;
75062;SDS011;63981;51.052;13.754;2023-05-07T04:34:04;10.68;;;7.25;;
75062;SDS011;63981;51.052;13.754;2023-05-07T04:36:30;11.52;;;7.78;;
75062;SDS011;63981;51.052;13.754;2023-05-07T04:39:02;11.05;;;7.00;;
75062;SDS011;63981;51.052;13.754;2023-05-07T04:41:28;10.95;;;7.18;;
75062;SDS011;63981;51.052;13.754;2023-05-07T04:43:55;12.40;;;7.22;;
75062;SDS011;63981;51.052;13.754;2023-05-07T04:46:23;13.43;;;9.25;;
75062;SDS011;63981;51.052;13.754;2023-05-07T04:48:50;11.75;;;7.88;;
75062;SDS011;63981;51.052;13.754;2023-05-07T04:51:16;11.88;;;7.70;;
75062;SDS011;63981;51.052;13.754;2023-05-07T04:53:43;14.45;;;8.02;;
75062;SDS011;63981;51.052;13.754;2023-05-07T04:56:09;14.00;;;9.32;;
75062;SDS011;63981;51.052;13.754;2023-05-07T04:58:39;12.68;;;7.90;;
75062;SDS011;63981;51.052;13.754;2023-05-07T05:01:05;11.82;;;7.50;;
75062;SDS011;63981;51.052;13.754;2023-05-07T05:03:31;12.02;;;7.13;;
75062;SDS011;63981;51.052;13.754;2023-05-07T05:05:58;14.27;;;8.50;;
75062;SDS011;63981;51.052;13.754;2023-05-07T05:08:28;11.77;;;7.75;;
75062;SDS011;63981;51.052;13.754;2023-05-07T05:10:56;10.15;;;7.13;;
75062;SDS011;63981;51.052;13.754;2023-05-07T05:13:22;11.10;;;6.90;;
75062;SDS011;63981;51.052;13.754;2023-05-07T05:15:47;10.70;;;7.38;;
75062;SDS011;63981;51.052;13.754;2023-05-07T05:18:14;12.10;;;7.68;;
75062;SDS011;63981;51.052;13.754;2023-05-07T05:20:40;11.88;;;7.55;;
75062;SDS011;63981;51.052;13.754;2023-05-07T05:23:07;9.75;;;7.00;;
75062;SDS011;63981;51.052;13.754;2023-05-07T05:25:33;12.10;;;7.57;;
75062;SDS011;63981;51.052;13.754;2023-05-07T05:28:00;11.07;;;7.20;;
75062;SDS011;63981;51.052;13.754;2023-05-07T05:30:27;13.85;;;9.15;;
75062;SDS011;63981;51.052;13.754;2023-05-07T05:32:52;10.60;;;7.35;;
75062;SDS011;63981;51.052;13.754;2023-05-07T05:35:18;11.82;;;7.85;;
75062;SDS011;63981;51.052;13.754;2023-05-07T05:37:44;13.55;;;8.10;;
75062;SDS011;63981;51.052;13.754;2023-05-07T05:40:11;13.20;;;8.88;;
75062;SDS011;63981;51.052;13.754;2023-05-07T05:42:37;14.43;;;8.80;;
75062;SDS011;63981;51.052;13.754;2023-05-07T05:45:03;14.25;;;8.20;;
75062;SDS011;63981;51.052;13.754;2023-05-07T05:49:57;13.18;;;7.55;;
75062;SDS011;63981;51.052;13.754;2023-05-07T05:52:23;11.18;;;8.18;;
75062;SDS011;63981;51.052;13.754;2023-05-07T05:54:53;13.10;;;7.63;;
75062;SDS011;63981;51.052;13.754;2023-05-07T05:57:19;12.75;;;7.82;;
75062;SDS011;63981;51.052;13.754;2023-05-07T05:59:45;13.80;;;8.40;;
75062;SDS011;63981;51.052;13.754;2023-05-07T06:02:12;12.35;;;7.50;;
75062;SDS011;63981;51.052;13.754;2023-05-07T06:04:38;10.32;;;6.22;;
75062;SDS011;63981;51.052;13.754;2023-05-07T06:07:04;10.07;;;6.50;;
75062;SDS011;63981;51.052;13.754;2023-05-07T06:09:30;10.20;;;6.78;;
75062;SDS011;63981;51.052;13.754;2023-05-07T06:11:56;11.70;;;7.30;;
75062;SDS011;63981;51.052;13.754;2023-05-07T06:14:22;9.85;;;5.82;;
75062;SDS011;63981;51.052;13.754;2023-05-07T06:16:48;45.88;;;37.90;;
75062;SDS011;63981;51.052;13.754;2023-05-07T06:19:14;7.90;;;5.25;;
75062;SDS011;63981;51.052;13.754;2023-05-07T06:21:43;9.77;;;5.60;;
75062;SDS011;63981;51.052;13.754;2023-05-07T06:24:10;8.40;;;5.78;;
75062;SDS011;63981;51.052;13.754;2023-05-07T06:26:37;8.15;;;5.05;;
75062;SDS011;63981;51.052;13.754;2023-05-07T06:29:03;5.93;;;4.13;;
75062;SDS011;63981;51.052;13.754;2023-05-07T06:31:29;5.30;;;4.10;;
75062;SDS011;63981;51.052;13.754;2023-05-07T06:34:04;5.50;;;3.90;;
75062;SDS011;63981;51.052;13.754;2023-05-07T06:36:36;5.30;;;4.13;;
75062;SDS011;63981;51.052;13.754;2023-05-07T06:39:24;5.80;;;3.78;;
75062;SDS011;63981;51.052;13.754;2023-05-07T06:41:51;7.35;;;4.88;;
75062;SDS011;63981;51.052;13.754;2023-05-07T06:44:24;8.35;;;5.97;;
75062;SDS011;63981;51.052;13.754;2023-05-07T06:47:19;8.70;;;5.60;;
75062;SDS011;63981;51.052;13.754;2023-05-07T06:49:49;7.22;;;4.97;;
75062;SDS011;63981;51.052;13.754;2023-05-07T06:52:17;76.50;;;69.57;;
75062;SDS011;63981;51.052;13.754;2023-05-07T06:54:44;6.95;;;5.07;;
75062;SDS011;63981;51.052;13.754;2023-05-07T06:57:11;8.18;;;5.13;;
75062;SDS011;63981;51.052;13.754;2023-05-07T06:59:36;7.47;;;5.70;;
75062;SDS011;63981;51.052;13.754;2023-05-07T07:02:02;7.10;;;5.35;;
75062;SDS011;63981;51.052;13.754;2023-05-07T07:04:28;7.78;;;5.50;;
75062;SDS011;63981;51.052;13.754;2023-05-07T07:07:01;9.23;;;5.47;;
75062;SDS011;63981;51.052;13.754;2023-05-07T07:09:28;8.32;;;5.60;;
75062;SDS011;63981;51.052;13.754;2023-05-07T07:11:54;8.60;;;5.88;;
75062;SDS011;63981;51.052;13.754;2023-05-07T07:14:20;9.32;;;6.05;;
75062;SDS011;63981;51.052;13.754;2023-05-07T07:16:49;8.15;;;5.32;;
75062;SDS011;63981;51.052;13.754;2023-05-07T07:19:17;6.32;;;4.80;;
75062;SDS011;63981;51.052;13.754;2023-05-07T07:21:46;6.35;;;4.70;;
75062;SDS011;63981;51.052;13.754;2023-05-07T07:24:13;6.43;;;4.53;;
75062;SDS011;63981;51.052;13.754;2023-05-07T07:26:45;6.13;;;4.35;;
75062;SDS011;63981;51.052;13.754;2023-05-07T07:29:12;5.35;;;3.83;;
75062;SDS011;63981;51.052;13.754;2023-05-07T07:31:39;5.63;;;3.90;;
75062;SDS011;63981;51.052;13.754;2023-05-07T07:34:06;5.68;;;3.97;;
75062;SDS011;63981;51.052;13.754;2023-05-07T07:36:32;4.97;;;3.65;;
75062;SDS011;63981;51.052;13.754;2023-05-07T07:38:58;4.07;;;3.50;;
75062;SDS011;63981;51.052;13.754;2023-05-07T07:41:24;4.20;;;2.97;;
75062;SDS011;63981;51.052;13.754;2023-05-07T07:43:50;5.35;;;3.20;;
75062;SDS011;63981;51.052;13.754;2023-05-07T07:46:19;31.45;;;26.75;;
75062;SDS011;63981;51.052;13.754;2023-05-07T07:48:45;4.35;;;3.55;;
75062;SDS011;63981;51.052;13.754;2023-05-07T07:51:11;4.57;;;3.42;;
75062;SDS011;63981;51.052;13.754;2023-05-07T07:53:37;5.28;;;4.40;;
75062;SDS011;63981;51.052;13.754;2023-05-07T07:56:04;4.60;;;3.33;;
75062;SDS011;63981;51.052;13.754;2023-05-07T08:00:58;4.40;;;3.33;;
75062;SDS011;63981;51.052;13.754;2023-05-07T08:03:24;4.97;;;4.15;;
75062;SDS011;63981;51.052;13.754;2023-05-07T08:05:56;4.45;;;3.60;;
75062;SDS011;63981;51.052;13.754;2023-05-07T08:08:23;4.65;;;3.33;;
75062;SDS011;63981;51.052;13.754;2023-05-07T08:10:53;6.72;;;4.53;;
75062;SDS011;63981;51.052;13.754;2023-05-07T08:13:25;4.25;;;3.83;;
75062;SDS011;63981;51.052;13.754;2023-05-07T08:15:51;5.03;;;4.20;;
75062;SDS011;63981;51.052;13.754;2023-05-07T08:18:18;4.30;;;3.53;;
75062;SDS011;63981;51.052;13.754;2023-05-07T08:20:44;6.65;;;3.95;;
75062;SDS011;63981;51.052;13.754;2023-05-07T08:23:14;5.10;;;3.20;;
75062;SDS011;63981;51.052;13.754;2023-05-07T08:25:41;3.58;;;2.90;;
75062;SDS011;63981;51.052;13.754;2023-05-07T08:28:08;3.90;;;2.63;;
75062;SDS011;63981;51.052;13.754;2023-05-07T08:30:34;4.72;;;3.70;;
75062;SDS011;63981;51.052;13.754;2023-05-07T08:33:00;3.95;;;3.10;;
75062;SDS011;63981;51.052;13.754;2023-05-07T08:35:26;4.25;;;3.08;;
75062;SDS011;63981;51.052;13.754;2023-05-07T08:37:53;3.42;;;3.13;;
75062;SDS011;63981;51.052;13.754;2023-05-07T08:40:20;4.78;;;2.60;;
75062;SDS011;63981;51.052;13.754;2023-05-07T08:42:52;3.90;;;3.30;;
75062;SDS011;63981;51.052;13.754;2023-05-07T08:45:18;3.72;;;3.17;;
75062;SDS011;63981;51.052;13.754;2023-05-07T08:47:49;4.07;;;3.65;;
75062;SDS011;63981;51.052;13.754;2023-05-07T08:50:20;3.17;;;2.63;;
75062;SDS011;63981;51.052;13.754;2023-05-07T08:52:47;4.15;;;3.05;;
75062;SDS011;63981;51.052;13.754;2023-05-07T08:55:15;3.38;;;3.08;;
75062;SDS011;63981;51.052;13.754;2023-05-07T08:57:43;4.38;;;3.97;;
75062;SDS011;63981;51.052;13.754;2023-05-07T09:00:10;5.75;;;4.38;;
75062;SDS011;63981;51.052;13.754;2023-05-07T09:02:37;4.93;;;4.15;;
75062;SDS011;63981;51.052;13.754;2023-05-07T09:05:04;6.72;;;5.00;;
75062;SDS011;63981;51.052;13.754;2023-05-07T09:07:31;5.97;;;4.53;;
75062;SDS011;63981;51.052;13.754;2023-05-07T09:10:00;7.68;;;6.07;;
75062;SDS011;63981;51.052;13.754;2023-05-07T09:12:27;5.43;;;4.45;;
75062;SDS011;63981;51.052;13.754;2023-05-07T09:14:53;7.93;;;5.80;;
75062;SDS011;63981;51.052;13.754;2023-05-07T09:17:19;6.55;;;5.22;;
75062;SDS011;63981;51.052;13.754;2023-05-07T09:19:45;6.72;;;5.07;;
75062;SDS011;63981;51.052;13.754;2023-05-07T09:22:13;6.22;;;5.20;;
75062;SDS011;63981;51.052;13.754;2023-05-07T09:24:49;7.53;;;4.95;;
75062;SDS011;63981;51.052;13.754;2023-05-07T09:29:44;6.32;;;4.68;;
75062;SDS011;63981;51.052;13.754;2023-05-07T09:32:12;7.82;;;5.18;;
75062;SDS011;63981;51.052;13.754;2023-05-07T09:34:40;6.72;;;4.85;;
75062;SDS011;63981;51.052;13.754;2023-05-07T09:37:07;6.75;;;5.53;;
75062;SDS011;63981;51.052;13.754;2023-05-07T09:39:40;6.95;;;5.00;;
75062;SDS011;63981;51.052;13.754;2023-05-07T09:42:11;6.30;;;4.95;;
75062;SDS011;63981;51.052;13.754;2023-05-07T09:44:39;5.97;;;4.72;;
75062;SDS011;63981;51.052;13.754;2023-05-07T09:47:10;5.53;;;4.55;;
75062;SDS011;63981;51.052;13.754;2023-05-07T09:49:42;5.13;;;4.18;;
75062;SDS011;63981;51.052;13.754;2023-05-07T09:52:15;5.75;;;4.30;;
75062;SDS011;63981;51.052;13.754;2023-05-07T09:54:46;5.13;;;4.40;;
75062;SDS011;63981;51.052;13.754;2023-05-07T09:57:15;4.57;;;4.00;;
75062;SDS011;63981;51.052;13.754;2023-05-07T09:59:43;6.90;;;4.60;;
75062;SDS011;63981;51.052;13.754;2023-05-07T10:02:15;5.38;;;4.53;;
75062;SDS011;63981;51.052;13.754;2023-05-07T10:04:49;6.55;;;5.25;;
75062;SDS011;63981;51.052;13.754;2023-05-07T10:07:20;6.03;;;5.43;;
75062;SDS011;63981;51.052;13.754;2023-05-07T10:09:49;7.43;;;5.97;;
75062;SDS011;63981;51.052;13.754;2023-05-07T10:12:26;7.63;;;5.57;;
75062;SDS011;63981;51.052;13.754;2023-05-07T10:14:53;7.05;;;5.40;;
75062;SDS011;63981;51.052;13.754;2023-05-07T10:17:20;6.90;;;5.28;;
75062;SDS011;63981;51.052;13.754;2023-05-07T10:19:48;7.00;;;5.20;;
75062;SDS011;63981;51.052;13.754;2023-05-07T10:22:17;6.13;;;5.22;;
75062;SDS011;63981;51.052;13.754;2023-05-07T10:27:15;5.95;;;5.35;;
75062;SDS011;63981;51.052;13.754;2023-05-07T10:35:24;6.78;;;4.95;;
75062;SDS011;63981;51.052;13.754;2023-05-07T10:37:55;5.88;;;4.90;;
75062;SDS011;63981;51.052;13.754;2023-05-07T10:40:24;7.40;;;5.93;;
75062;SDS011;63981;51.052;13.754;2023-05-07T10:45:33;6.10;;;4.97;;
75062;SDS011;63981;51.052;13.754;2023-05-07T10:48:07;6.03;;;5.30;;
75062;SDS011;63981;51.052;13.754;2023-05-07T10:50:34;5.03;;;4.53;;
75062;SDS011;63981;51.052;13.754;2023-05-07T10:58:47;5.25;;;4.53;;
75062;SDS011;63981;51.052;13.754;2023-05-07T11:01:48;5.50;;;4.72;;
75062;SDS011;63981;51.052;13.754;2023-05-07T11:04:31;5.22;;;4.43;;
75062;SDS011;63981;51.052;13.754;2023-05-07T11:07:24;6.30;;;5.20;;
75062;SDS011;63981;51.052;13.754;2023-05-07T11:09:54;4.53;;;3.78;;
75062;SDS011;63981;51.052;13.754;2023-05-07T11:15:04;4.80;;;4.07;;
75062;SDS011;63981;51.052;13.754;2023-05-07T11:17:53;13.73;;;12.25;;
75062;SDS011;63981;51.052;13.754;2023-05-07T11:20:20;581.67;;;518.80;;
75062;SDS011;63981;51.052;13.754;2023-05-07T11:22:53;717.50;;;645.70;;
75062;SDS011;63981;51.052;13.754;2023-05-07T11:25:35;729.42;;;658.63;;
75062;SDS011;63981;51.052;13.754;2023-05-07T11:28:16;731.80;;;660.88;;
75062;SDS011;63981;51.052;13.754;2023-05-07T11:30:53;730.47;;;660.35;;
75062;SDS011;63981;51.052;13.754;2023-05-07T11:33:20;729.88;;;659.95;;
75062;SDS011;63981;51.052;13.754;2023-05-07T11:35:49;730.95;;;661.05;;
75062;SDS011;63981;51.052;13.754;2023-05-07T11:38:17;728.15;;;658.55;;
75062;SDS011;63981;51.052;13.754;2023-05-07T11:40:53;733.75;;;662.95;;
75062;SDS011;63981;51.052;13.754;2023-05-07T11:43:22;733.85;;;663.35;;
75062;SDS011;63981;51.052;13.754;2023-05-07T11:45:48;735.10;;;665.20;;
75062;SDS011;63981;51.052;13.754;2023-05-07T11:48:15;731.17;;;661.20;;
75062;SDS011;63981;51.052;13.754;2023-05-07T11:50:51;731.30;;;660.97;;
75062;SDS011;63981;51.052;13.754;2023-05-07T11:53:27;729.10;;;658.85;;
75062;SDS011;63981;51.052;13.754;2023-05-07T11:56:00;734.75;;;665.03;;
75062;SDS011;63981;51.052;13.754;2023-05-07T11:58:31;734.17;;;663.63;;
75062;SDS011;63981;51.052;13.754;2023-05-07T12:00:57;731.03;;;660.95;;
75062;SDS011;63981;51.052;13.754;2023-05-07T12:03:22;736.90;;;666.17;;
75062;SDS011;63981;51.052;13.754;2023-05-07T12:05:48;733.13;;;663.53;;
75062;SDS011;63981;51.052;13.754;2023-05-07T12:08:15;735.30;;;664.65;;
75062;SDS011;63981;51.052;13.754;2023-05-07T12:10:42;735.25;;;664.65;;
75062;SDS011;63981;51.052;13.754;2023-05-07T12:13:21;737.60;;;666.88;;
75062;SDS011;63981;51.052;13.754;2023-05-07T12:15:57;735.25;;;665.35;;
75062;SDS011;63981;51.052;13.754;2023-05-07T12:18:29;736.95;;;666.85;;
75062;SDS011;63981;51.052;13.754;2023-05-07T12:20:56;732.38;;;661.72;;
75062;SDS011;63981;51.052;13.754;2023-05-07T12:23:22;732.22;;;661.15;;
75062;SDS011;63981;51.052;13.754;2023-05-07T12:25:48;732.28;;;661.00;;
75062;SDS011;63981;51.052;13.754;2023-05-07T12:28:15;734.53;;;663.58;;
75062;SDS011;63981;51.052;13.754;2023-05-07T12:30:42;733.47;;;662.13;;
75062;SDS011;63981;51.052;13.754;2023-05-07T12:33:17;731.17;;;660.22;;
75062;SDS011;63981;51.052;13.754;2023-05-07T12:35:47;731.78;;;661.08;;
75062;SDS011;63981;51.052;13.754;2023-05-07T12:38:14;736.60;;;665.00;;
75062;SDS011;63981;51.052;13.754;2023-05-07T12:40:54;734.20;;;662.78;;
75062;SDS011;63981;51.052;13.754;2023-05-07T12:43:20;730.80;;;660.33;;
75062;SDS011;63981;51.052;13.754;2023-05-07T12:45:50;730.08;;;659.00;;
75062;SDS011;63981;51.052;13.754;2023-05-07T12:48:17;735.20;;;664.72;;
75062;SDS011;63981;51.052;13.754;2023-05-07T12:50:44;730.35;;;659.03;;
75062;SDS011;63981;51.052;13.754;2023-05-07T12:53:11;730.95;;;658.80;;
75062;SDS011;63981;51.052;13.754;2023-05-07T12:58:08;729.97;;;656.05;;
75062;SDS011;63981;51.052;13.754;2023-05-07T13:00:39;727.78;;;653.97;;
75062;SDS011;63981;51.052;13.754;2023-05-07T13:03:06;730.13;;;655.25;;
75062;SDS011;63981;51.052;13.754;2023-05-07T13:05:32;727.10;;;652.30;;
75062;SDS011;63981;51.052;13.754;2023-05-07T13:07:58;729.30;;;654.97;;
75062;SDS011;63981;51.052;13.754;2023-05-07T13:10:24;726.85;;;652.53;;
75062;SDS011;63981;51.052;13.754;2023-05-07T13:12:50;728.80;;;653.97;;
75062;SDS011;63981;51.052;13.754;2023-05-07T13:15:17;732.22;;;657.22;;
75062;SDS011;63981;51.052;13.754;2023-05-07T13:17:43;732.33;;;657.95;;
75062;SDS011;63981;51.052;13.754;2023-05-07T13:20:09;732.28;;;657.80;;
75062;SDS011;63981;51.052;13.754;2023-05-07T13:22:35;729.85;;;655.97;;
75062;SDS011;63981;51.052;13.754;2023-05-07T13:25:01;729.42;;;655.80;;
75062;SDS011;63981;51.052;13.754;2023-05-07T13:27:27;728.45;;;654.88;;
75062;SDS011;63981;51.052;13.754;2023-05-07T13:29:56;731.05;;;657.75;;
75062;SDS011;63981;51.052;13.754;2023-05-07T13:32:22;730.92;;;657.95;;
75062;SDS011;63981;51.052;13.754;2023-05-07T13:34:48;730.30;;;657.63;;
75062;SDS011;63981;51.052;13.754;2023-05-07T13:37:14;730.60;;;657.28;;
75062;SDS011;63981;51.052;13.754;2023-05-07T13:39:40;727.47;;;654.85;;
75062;SDS011;63981;51.052;13.754;2023-05-07T13:42:06;730.50;;;657.72;;
75062;SDS011;63981;51.052;13.754;2023-05-07T13:44:32;732.55;;;659.22;;
75062;SDS011;63981;51.052;13.754;2023-05-07T13:46:58;729.00;;;656.28;;
75062;SDS011;63981;51.052;13.754;2023-05-07T13:49:24;730.20;;;657.20;;
75062;SDS011;63981;51.052;13.754;2023-05-07T13:51:51;729.25;;;656.50;;
75062;SDS011;63981;51.052;13.754;2023-05-07T13:54:16;726.88;;;654.22;;
75062;SDS011;63981;51.052;13.754;2023-05-07T13:56:42;732.45;;;659.85;;
75062;SDS011;63981;51.052;13.754;2023-05-07T13:59:08;730.97;;;658.20;;
75062;SDS011;63981;51.052;13.754;2023-05-07T14:01:35;731.80;;;659.40;;
75062;SDS011;63981;51.052;13.754;2023-05-07T14:04:01;731.28;;;658.60;;
75062;SDS011;63981;51.052;13.754;2023-05-07T14:06:29;733.80;;;660.97;;
75062;SDS011;63981;51.052;13.754;2023-05-07T14:08:55;736.08;;;663.28;;
75062;SDS011;63981;51.052;13.754;2023-05-07T14:11:23;736.97;;;664.17;;
75062;SDS011;63981;51.052;13.754;2023-05-07T14:13:49;739.45;;;666.97;;
75062;SDS011;63981;51.052;13.754;2023-05-07T14:16:15;737.35;;;665.15;;
75062;SDS011;63981;51.052;13.754;2023-05-07T14:18:42;735.70;;;663.83;;
75062;SDS011;63981;51.052;13.754;2023-05-07T14:21:09;742.40;;;670.67;;
75062;SDS011;63981;51.052;13.754;2023-05-07T14:23:35;733.85;;;663.03;;
75062;SDS011;63981;51.052;13.754;2023-05-07T14:26:01;730.65;;;659.85;;
75062;SDS011;63981;51.052;13.754;2023-05-07T14:28:27;730.47;;;659.08;;
75062;SDS011;63981;51.052;13.754;2023-05-07T14:30:53;730.03;;;658.42;;
75062;SDS011;63981;51.052;13.754;2023-05-07T14:33:19;727.70;;;656.28;;
75062;SDS011;63981;51.052;13.754;2023-05-07T14:35:45;727.10;;;655.67;;
75062;SDS011;63981;51.052;13.754;2023-05-07T14:38:14;730.97;;;658.97;;
75062;SDS011;63981;51.052;13.754;2023-05-07T14:40:40;730.00;;;657.33;;
75062;SDS011;63981;51.052;13.754;2023-05-07T14:43:07;727.08;;;655.13;;
75062;SDS011;63981;51.052;13.754;2023-05-07T14:45:32;727.25;;;655.38;;
75062;SDS011;63981;51.052;13.754;2023-05-07T14:47:58;729.40;;;657.05;;
75062;SDS011;63981;51.052;13.754;2023-05-07T14:50:24;729.75;;;656.63;;